This is the latest recevied weather packets stored in our database for station/object K7SPS-10. If no packets are shown the sender has not sent any weather packets the latest 1 day(s).
| Time | Temp. | Humidity | Pressure | Rain* | Wind** | Luminosity | Snow |
|---|---|---|---|---|---|---|---|
| 1778053651 | 12.78° C | 56% | 1014.5 hPa | 0 mm | - | 0 W/m² | - |
| 1778053348 | 13.89° C | 53% | 1014.2 hPa | 0 mm | - | 0 W/m² | - |
| 1778053046 | 15.56° C | 48% | 1014.3 hPa | 0 mm | - | 0 W/m² | - |
| 1778052743 | 15° C | 49% | 1014.3 hPa | 0 mm | - | 0 W/m² | - |
| 1778052440 | 15° C | 49% | 1014.4 hPa | 0 mm | - | 0 W/m² | - |
| 1778051835 | 15.56° C | 47% | 1014 hPa | 0 mm | - | 0 W/m² | - |
| 1778051229 | 15° C | 50% | 1014.3 hPa | 0 mm | - | 0 W/m² | - |
| 1778050017 | 16.67° C | 46% | 1014 hPa | 0 mm | - | 0 W/m² | - |
| 1778049713 | 16.11° C | 47% | 1013.7 hPa | 0 mm | - | 0 W/m² | - |
| 1778049411 | 16.11° C | 47% | 1013.6 hPa | 0 mm | - | 0 W/m² | - |
| 1778049108 | 16.11° C | 46% | 1013.6 hPa | 0 mm | - | 0 W/m² | - |
| 1778048503 | 16.11° C | 47% | 1013.3 hPa | 0 mm | - | 0 W/m² | - |
| 1778048199 | 16.11° C | 48% | 1013.3 hPa | 0 mm | - | 0 W/m² | - |
| 1778047897 | 17.22° C | 45% | 1013.2 hPa | 0 mm | - | 0 W/m² | - |
| 1778047596 | 17.78° C | 44% | 1013 hPa | 0 mm | - | 0 W/m² | - |
| 1778047292 | 17.78° C | 44% | 1012.9 hPa | 0 mm | - | 0 W/m² | - |
| 1778046989 | 17.78° C | 43% | 1012.5 hPa | 0 mm | - | 0 W/m² | - |
| 1778046383 | 17.22° C | 44% | 1012.7 hPa | 0 mm | - | 0 W/m² | - |
| 1778046079 | 17.78° C | 43% | 1012.4 hPa | 0 mm | - | 0 W/m² | - |
| 1778045777 | 17.22° C | 44% | 1012.4 hPa | 0 mm | - | 0 W/m² | - |
| 1778045475 | 16.67° C | 47% | 1012.3 hPa | 0 mm | - | 0 W/m² | - |
| 1778045173 | 17.22° C | 44% | 1012.4 hPa | 0 mm | - | 0 W/m² | - |
| 1778044567 | 17.22° C | 44% | 1012.2 hPa | 0 mm | - | 0 W/m² | - |
| 1778043962 | 17.22° C | 44% | 1012 hPa | 0 mm | - | 0 W/m² | - |
| 1778043659 | 17.78° C | 42% | 1012 hPa | 0 mm | - | 0 W/m² | - |
* Rain latest hour (hover to see other rain measurements)
** Current wind speed in m/s (hover to see current wind gust speed)